^^
Datos históricos de la estación: Murcia-Puente Tocinos
Diario Informe para Enero 5, 2019 Unidades:  Ingés    Métrico   Ambas
Diario Semanal Mensual Anual
  Máxima: Mínima: Promedio:
Temperatura: 71.6 °F 57.4 °F 64.6 °F
Punto de rocio: 56.1 °F 48.9 °F 52.9 °F
Humedad: 85% 49% 67%
Velocidad viento: 12.3mph 0mph 6.3mph
Racha viento: 22mph - -
Viento- - SE
Presión: 30 in 29.8 in -
Precipitación: 0 in    
 
 
Tabla de datos para Enero 5, 2019
Hora Temperatura Punto de rocio Presión Viento Velocidad viento Racha viento Humedad Intensidad lluvia(por hora) Nubes
00:04 62.1 °F 55.2 °F 29.9 in SE 2.9 mph 7 mph 78% 0 in
00:09 62.1 °F 55 °F 29.9 in ESE 2.7 mph 7 mph 78% 0 in
00:14 62.1 °F 55.2 °F 29.9 in ESE 2 mph 5 mph 78% 0 in
00:19 62.2 °F 55.2 °F 29.9 in ESE 1.4 mph 4.3 mph 78% 0 in
00:24 62.2 °F 55.2 °F 29.9 in Calm   5 mph 78% 0 in
00:29 62.2 °F 55.2 °F 29.9 in NO 0.7 mph 5.8 mph 78% 0 in
00:34 62.1 °F 55.2 °F 29.9 in NO 2.4 mph 6 mph 78% 0 in
00:39 62.1 °F 55 °F 29.9 in ONO 2.2 mph 5.2 mph 78% 0 in
00:44 62.1 °F 55 °F 29.9 in SO 1.8 mph 8.1 mph 78% 0 in
00:49 62.1 °F 55 °F 29.9 in ONO 2.4 mph 8 mph 78% 0 in
00:54 62.1 °F 55.2 °F 29.9 in SSE 3.6 mph 6.2 mph 78% 0 in
00:59 62.1 °F 55 °F 29.9 in SSE 2.9 mph 6 mph 78% 0 in
01:04 62.2 °F 55.2 °F 29.9 in Sur 2 mph 5 mph 78% 0 in
01:09 62.2 °F 55.2 °F 29.9 in Sur 2 mph 5.9 mph 78% 0 in
01:14 62.2 °F 55.2 °F 29.9 in SO 2 mph 8.5 mph 78% 0 in
01:19 62.2 °F 55.4 °F 29.9 in SO 2.7 mph 10.4 mph 78.5% 0 in
01:24 62.2 °F 55.6 °F 29.9 in SO 4.3 mph 10.7 mph 79.1% 0 in
01:29 62.1 °F 55.8 °F 29.9 in SO 4.8 mph 11 mph 80% 0 in
01:34 62.1 °F 55.8 °F 29.9 in SO 5.9 mph 9 mph 80% 0 in
01:39 61.9 °F 55.9 °F 29.9 in SO 5.3 mph 10.4 mph 80.8% 0 in
01:44 61.9 °F 55.9 °F 29.9 in OSO 4.3 mph 10 mph 81% 0 in
01:49 61.9 °F 55.9 °F 29.9 in OSO 4.3 mph 10.4 mph 81% 0 in
01:54 61.9 °F 55.9 °F 29.9 in OSO 4.3 mph 12 mph 81% 0 in
01:59 61.7 °F 55.9 °F 29.9 in OSO 5 mph 12 mph 81.5% 0 in
02:04 61.5 °F 55.9 °F 29.9 in OSO 5.9 mph 10 mph 82% 0 in
02:09 61.5 °F 55.9 °F 29.9 in OSO 5.9 mph 10.4 mph 82% 0 in
02:14 61.5 °F 55.9 °F 29.9 in OSO 5.9 mph 10 mph 82% 0 in
02:19 61.5 °F 55.9 °F 29.9 in OSO 5.8 mph 11.5 mph 82% 0 in
02:24 61.5 °F 56.1 °F 29.9 in SO 5.4 mph 12 mph 82.8% 0 in
02:29 61.3 °F 56.1 °F 29.9 in SO 5.7 mph 14.7 mph 83% 0 in
02:34 61.3 °F 56.1 °F 29.9 in SO 6.4 mph 15 mph 83% 0 in
02:39 61.3 °F 56.1 °F 29.8 in SO 6.7 mph 14 mph 83% 0 in
02:44 61.3 °F 56.1 °F 29.8 in SSO 7.4 mph 11 mph 83% 0 in
02:49 61.3 °F 56.1 °F 29.8 in SSO 7.1 mph 13 mph 83% 0 in
02:54 61.2 °F 55.9 °F 29.8 in SO 6.4 mph 14 mph 83% 0 in
02:59 61.2 °F 55.9 °F 29.8 in SO 6.4 mph 14 mph 83% 0 in
03:04 61 °F 55.8 °F 29.8 in SSO 6.4 mph 10 mph 83% 0 in
03:09 61 °F 55.8 °F 29.8 in SSO 5.8 mph 8.1 mph 83% 0 in
03:14 60.8 °F 55.6 °F 29.8 in SO 4.7 mph 8 mph 83% 0 in
03:19 60.6 °F 55.4 °F 29.8 in SO 4.5 mph 6 mph 83% 0 in
03:24 60.6 °F 55.4 °F 29.8 in SO 4 mph 6.9 mph 83% 0 in
03:29 60.6 °F 55 °F 29.8 in SO 4 mph 8.1 mph 82.1% 0 in
03:34 60.6 °F 55 °F 29.8 in SO 4 mph 8.5 mph 82% 0 in
03:39 60.6 °F 55 °F 29.8 in SO 4.4 mph 13.8 mph 82% 0 in
03:44 60.4 °F 55 °F 29.8 in SSO 5.4 mph 14 mph 82% 0 in
03:49 60.4 °F 54.9 °F 29.8 in SSO 6 mph 13 mph 82% 0 in
03:54 60.3 °F 54.7 °F 29.8 in SO 7.4 mph 12 mph 82% 0 in
03:59 60.3 °F 54.9 °F 29.8 in SO 6.1 mph 10 mph 82.3% 0 in
04:04 60.1 °F 54.7 °F 29.8 in SO 4.3 mph 7 mph 82% 0 in
04:09 60.1 °F 54.7 °F 29.8 in SSO 4.2 mph 7 mph 82.1% 0 in
04:14 59.9 °F 54.9 °F 29.8 in Sur 4 mph 8.5 mph 83% 0 in
04:19 59.7 °F 54.5 °F 29.8 in Sur 4.3 mph 9 mph 83% 0 in
04:24 59.5 °F 54.5 °F 29.8 in Sur 5.2 mph 8.1 mph 83% 0 in
04:29 59.4 °F 54.3 °F 29.8 in Sur 5.4 mph 10.4 mph 83% 0 in
04:34 59.4 °F 54.1 °F 29.8 in SSO 5.9 mph 10 mph 83% 0 in
04:39 59.7 °F 54.1 °F 29.8 in Sur 5.9 mph 10.7 mph 82% 0 in
04:44 59.4 °F 54 °F 29.8 in Sur 5.9 mph 12.3 mph 82.1% 0 in
04:49 58.8 °F 53.8 °F 29.8 in Sur 6.4 mph 12 mph 83.6% 0 in
04:54 58.5 °F 54 °F 29.8 in SSO 7.4 mph 10 mph 84.8% 0 in
04:59 58.5 °F 54 °F 29.8 in SSO 6.5 mph 10.7 mph 85% 0 in
05:04 58.6 °F 54 °F 29.8 in SO 5.2 mph 11 mph 84.8% 0 in
05:09 58.6 °F 54 °F 29.8 in SO 5 mph 9 mph 84% 0 in
05:14 58.8 °F 54 °F 29.8 in OSO 4.7 mph 8 mph 83.6% 0 in
05:19 58.8 °F 53.8 °F 29.8 in OSO 4.4 mph 6.9 mph 83% 0 in
05:24 58.8 °F 53.8 °F 29.8 in OSO 3.6 mph 7 mph 83% 0 in
05:29 58.8 °F 53.8 °F 29.8 in SO 3.4 mph 6 mph 83% 0 in
05:34 58.8 °F 53.8 °F 29.8 in SSO 3.1 mph 5.9 mph 83% 0 in
05:39 58.8 °F 53.8 °F 29.8 in SSE 3.2 mph 6.2 mph 83% 0 in
05:44 58.8 °F 53.8 °F 29.8 in Sur 3.6 mph 7.4 mph 83% 0 in
05:49 58.8 °F 53.6 °F 29.9 in Sur 4.1 mph 8.1 mph 83% 0 in
05:54 58.6 °F 53.4 °F 29.9 in Sur 5.2 mph 8.1 mph 83% 0 in
05:59 58.5 °F 53.4 °F 29.9 in Sur 5.2 mph 7.4 mph 83% 0 in
06:04 58.5 °F 53.6 °F 29.9 in SSO 5.2 mph 7 mph 84% 0 in
06:09 58.3 °F 53.4 °F 29.8 in SSO 5.2 mph 8.1 mph 84% 0 in
06:14 58.3 °F 53.4 °F 29.8 in SSO 5.2 mph 8.1 mph 84% 0 in
06:19 58.3 °F 53.4 °F 29.9 in SSO 5.2 mph 8.5 mph 84% 0 in
06:24 58.3 °F 53.4 °F 29.9 in SSO 5.2 mph 9.7 mph 84% 0 in
06:29 58.3 °F 53.4 °F 29.9 in SSO 5.4 mph 10 mph 84% 0 in
06:34 58.3 °F 53.4 °F 29.9 in SSO 5.9 mph 9 mph 84% 0 in
06:39 58.3 °F 53.4 °F 29.9 in SO 5.7 mph 9 mph 84% 0 in
06:44 58.3 °F 53.4 °F 29.9 in SO 5.2 mph 8 mph 84% 0 in
06:49 58.5 °F 53.4 °F 29.9 in SO 5 mph 8.1 mph 83.4% 0 in
06:54 58.5 °F 53.2 °F 29.9 in SO 4.7 mph 8 mph 83% 0 in
06:59 58.5 °F 53.2 °F 29.9 in SO 4.4 mph 7 mph 83% 0 in
07:04 58.5 °F 53.2 °F 29.9 in Sur 4 mph 6 mph 83% 0 in
07:09 58.5 °F 53.1 °F 29.9 in SSE 3.4 mph 5 mph 82.4% 0 in
07:14 58.5 °F 53.1 °F 29.9 in SSE 1.8 mph 5 mph 82.6% 0 in
07:19 58.1 °F 53.1 °F 29.9 in ESE 1.8 mph 4.6 mph 83% 0 in
07:24 57.7 °F 52.9 °F 29.9 in NE 1.8 mph 5 mph 83.4% 0 in
07:29 57.6 °F 52.7 °F 29.9 in NE 2 mph 5 mph 83.5% 0 in
07:34 57.4 °F 52.5 °F 29.9 in ESE 2.4 mph 5 mph 84% 0 in
07:39 57.4 °F 52.9 °F 29.9 in ESE 2.2 mph 5 mph 84.8% 0 in
07:44 57.6 °F 52.9 °F 29.9 in ENE 1.8 mph 3.6 mph 84.8% 0 in
07:49 57.7 °F 52.9 °F 29.9 in NE 1.9 mph 4.6 mph 84% 0 in
07:54 57.7 °F 52.9 °F 29.9 in NE 2 mph 5 mph 83.9% 0 in
07:59 57.9 °F 52.9 °F 29.9 in NNE 2 mph 5 mph 83.2% 0 in
08:04 58.1 °F 53.1 °F 29.9 in NNE 2 mph 5 mph 83% 0 in
08:09 58.3 °F 53.1 °F 29.9 in NNE 1.4 mph 1.4 mph 83% 0 in
08:14 58.5 °F 53.1 °F 29.9 in Calm   4.6 mph 82.2% 0 in
08:19 58.3 °F 53.1 °F 29.9 in ONO 0.6 mph 5 mph 82.5% 0 in
08:24 58.3 °F 53.1 °F 29.9 in ONO 2 mph 4.6 mph 83% 0 in
08:29 58.3 °F 53.2 °F 29.9 in ONO 2.1 mph 5 mph 83.3% 0 in
08:34 58.5 °F 53.4 °F 29.9 in NO 2.4 mph 4 mph 83.3% 0 in
08:39 58.8 °F 53.6 °F 29.9 in NO 2.3 mph 4 mph 83% 0 in
08:44 59.4 °F 54.1 °F 29.9 in NO 2 mph 4.6 mph 83% 0 in
08:49 59.9 °F 54.5 °F 29.9 in NE 1.8 mph 5 mph 82% 0 in
08:54 60.6 °F 54.5 °F 29.9 in NNE 1.4 mph 3 mph 80.4% 0 in
08:59 61.2 °F 54.5 °F 29.9 in North 0.8 mph 4.6 mph 78.5% 0 in
09:04 61.5 °F 54.5 °F 29.9 in Calm   5 mph 78% 0 in
09:09 61.9 °F 54.7 °F 29.9 in North 0.6 mph 5.4 mph 77.2% 0 in
09:14 62.2 °F 54.9 °F 29.9 in NNE 2 mph 6 mph 76.9% 0 in
09:19 62.4 °F 54.7 °F 29.9 in NE 2.3 mph 6.2 mph 75.3% 0 in
09:24 62.8 °F 54.7 °F 29.9 in NE 3.1 mph 7.4 mph 75% 0 in
09:29 63 °F 54.7 °F 29.9 in NNE 3.4 mph 7 mph 74.3% 0 in
09:34 63.1 °F 54.7 °F 29.9 in NE 4 mph 7 mph 73.9% 0 in
09:39 63.3 °F 54.7 °F 29.9 in NE 4 mph 7.6 mph 73.3% 0 in
09:44 63.7 °F 55 °F 29.9 in NE 4 mph 8.1 mph 73.5% 0 in
09:49 64 °F 55.2 °F 29.9 in NE 4.1 mph 8 mph 72.8% 0 in
09:54 64.2 °F 54.9 °F 29.9 in NE 4.3 mph 8.1 mph 71.7% 0 in
09:59 64.6 °F 55.2 °F 29.9 in ENE 4.3 mph 7 mph 71.7% 0 in
10:04 64.8 °F 54.7 °F 29.9 in NE 4.3 mph 7 mph 70.2% 0 in
10:09 64.9 °F 54.7 °F 29.9 in NNE 4.2 mph 7 mph 69.6% 0 in
10:14 65.1 °F 54.7 °F 29.9 in ENE 4 mph 7 mph 69% 0 in
10:19 65.7 °F 54.7 °F 29.9 in NE 3.7 mph 7 mph 68% 0 in
10:24 66 °F 54.3 °F 29.9 in ENE 3.1 mph 6 mph 65.8% 0 in
10:29 66.6 °F 54.1 °F 29.9 in NE 3 mph 6.9 mph 64.4% 0 in
10:34 66.9 °F 53.6 °F 29.9 in NE 2.9 mph 7 mph 62.4% 0 in
10:39 67.3 °F 53.8 °F 29.9 in NE 3.2 mph 6.2 mph 62% 0 in
10:44 67.5 °F 53.8 °F 29.9 in ESE 4 mph 6.2 mph 61.5% 0 in
10:49 67.6 °F 53.8 °F 30 in SSE 3.7 mph 8.5 mph 61% 0 in
10:54 67.6 °F 53.8 °F 30 in ESE 3.1 mph 9 mph 61% 0 in
10:59 68 °F 52.9 °F 30 in ESE 3.6 mph 11.8 mph 58.4% 0 in
11:04 68 °F 51.8 °F 30 in SE 4.3 mph 14 mph 56% 0 in
11:09 67.8 °F 51.4 °F 30 in SE 5.5 mph 14 mph 56% 0 in
11:14 68.2 °F 51.3 °F 30 in SE 8.1 mph 11.4 mph 54.5% 0 in
11:19 68.2 °F 51.4 °F 30 in SE 7.6 mph 13.8 mph 54.9% 0 in
11:24 68.4 °F 51.4 °F 30 in SE 6.4 mph 14 mph 54.6% 0 in
11:29 68.4 °F 51.6 °F 30 in SE 6.8 mph 15.2 mph 55.2% 0 in
11:34 68.4 °F 51.8 °F 30 in SE 7.6 mph 15 mph 55.5% 0 in
11:39 68.4 °F 51.6 °F 30 in SE 8.1 mph 15.2 mph 55% 0 in
11:44 68.5 °F 51.6 °F 30 in ESE 9.2 mph 16.3 mph 55% 0 in
11:49 68.5 °F 51.4 °F 30 in ESE 9.2 mph 18.4 mph 54.4% 0 in
11:54 68.4 °F 51.4 °F 30 in ESE 9.2 mph 18 mph 54.8% 0 in
11:59 68.5 °F 51.3 °F 30 in SE 9.6 mph 16.3 mph 54.3% 0 in
12:04 68.9 °F 51.3 °F 30 in ESE 10.2 mph 17.5 mph 53.2% 0 in
12:09 68.9 °F 51.1 °F 30 in ESE 10.1 mph 17.3 mph 53% 0 in
12:14 68.9 °F 51.1 °F 30 in ESE 10 mph 18.1 mph 53% 0 in
12:19 68.7 °F 50.9 °F 30 in ESE 10.6 mph 18.5 mph 52.8% 0 in
12:24 68.9 °F 51.1 °F 30 in ESE 11.8 mph 19 mph 53% 0 in
12:29 68.9 °F 51.1 °F 30 in ESE 11.1 mph 17 mph 53% 0 in
12:34 69.3 °F 51.4 °F 30 in ESE 9.2 mph 16.1 mph 53.2% 0 in
12:39 69.3 °F 51.3 °F 30 in SE 9.7 mph 18.5 mph 52.8% 0 in
12:44 69.3 °F 50.9 °F 30 in ESE 10.7 mph 19 mph 52% 0 in
12:49 69.1 °F 50 °F 30 in ESE 10.9 mph 17.5 mph 50.5% 0 in
12:54 69.1 °F 50 °F 30 in ESE 11.2 mph 20.8 mph 50.6% 0 in
12:59 68.9 °F 49.5 °F 30 in ESE 11 mph 21 mph 50% 0 in
13:04 68.9 °F 48.9 °F 30 in ESE 10.7 mph 19.2 mph 49% 0 in
13:09 68.7 °F 49.1 °F 30 in ESE 11 mph 19 mph 49.7% 0 in
13:14 69.3 °F 49.5 °F 30 in SE 11.8 mph 19 mph 49.6% 0 in
13:19 69.1 °F 49.6 °F 30 in SE 11.6 mph 19.6 mph 50% 0 in
13:24 68.9 °F 50 °F 30 in ESE 11.2 mph 20 mph 51% 0 in
13:29 69.1 °F 50.7 °F 30 in ESE 10.9 mph 20.7 mph 51.8% 0 in
13:34 68.7 °F 51.1 °F 30 in ESE 10 mph 21 mph 53.4% 0 in
13:39 68.5 °F 51.3 °F 30 in SE 10.5 mph 21.3 mph 53.8% 0 in
13:44 68.5 °F 51.4 °F 30 in SE 11.8 mph 21 mph 54.3% 0 in
13:49 68.5 °F 51.8 °F 30 in ESE 11.9 mph 21 mph 55% 0 in
13:54 69.3 °F 52.2 °F 30 in ESE 12.3 mph 19 mph 54.9% 0 in
13:59 69.1 °F 52 °F 30 in ESE 11.6 mph 19 mph 54.4% 0 in
14:04 68.9 °F 51.8 °F 30 in ESE 10.7 mph 19 mph 54.5% 0 in
14:09 68.9 °F 51.8 °F 30 in ESE 10.8 mph 18 mph 54.3% 0 in
14:14 69.4 °F 52 °F 30 in ESE 11.2 mph 20.7 mph 54.1% 0 in
14:19 69.4 °F 51.8 °F 30 in ESE 11.1 mph 21 mph 53.5% 0 in
14:24 69.6 °F 51.8 °F 30 in ESE 10.7 mph 18 mph 53% 0 in
14:29 69.6 °F 51.3 °F 30 in ESE 10.7 mph 18.5 mph 52.3% 0 in
14:34 69.4 °F 51.6 °F 30 in ESE 10.7 mph 21.9 mph 52.9% 0 in
14:39 69.4 °F 51.6 °F 30 in ESE 10.8 mph 22 mph 53.1% 0 in
14:44 69.6 °F 51.8 °F 30 in ESE 11.2 mph 20.8 mph 53.3% 0 in
14:49 69.6 °F 51.3 °F 30 in SE 11.2 mph 21 mph 52.1% 0 in
14:54 69.6 °F 51.1 °F 30 in SE 11.2 mph 20.7 mph 51.9% 0 in
14:59 69.4 °F 51.1 °F 30 in SE 10.6 mph 21 mph 52.1% 0 in
15:04 70.2 °F 51.4 °F 30 in ESE 9.7 mph 15.9 mph 51.8% 0 in
15:09 70.2 °F 51.3 °F 30 in SE 9.4 mph 17.3 mph 51.4% 0 in
15:14 70.2 °F 51.1 °F 30 in ESE 8.7 mph 17 mph 51.1% 0 in
15:19 70.2 °F 51.4 °F 30 in ESE 8.5 mph 17.3 mph 51.3% 0 in
15:24 70.2 °F 51.4 °F 30 in ESE 8.1 mph 20.1 mph 51.4% 0 in
15:29 70.2 °F 51.6 °F 30 in ESE 9.1 mph 20 mph 51.8% 0 in
15:34 70.3 °F 51.4 °F 30 in Este 11.2 mph 18 mph 51.3% 0 in
15:39 70.7 °F 52 °F 30 in Este 10.4 mph 18.5 mph 51.5% 0 in
15:44 70.7 °F 51.6 °F 30 in ESE 8.7 mph 19 mph 50.8% 0 in
15:49 70.3 °F 51.8 °F 30 in ESE 9.3 mph 18 mph 51.9% 0 in
15:54 70.5 °F 51.8 °F 30 in ESE 10.7 mph 17.5 mph 51.6% 0 in
15:59 70.7 °F 52.2 °F 30 in ESE 10.1 mph 17.5 mph 51.9% 0 in
16:04 70.9 °F 52.3 °F 30 in ESE 9.2 mph 17 mph 52% 0 in
16:09 71.1 °F 52.2 °F 30 in SE 9.2 mph 18.4 mph 51.4% 0 in
16:14 71.1 °F 52.5 °F 30 in ESE 9.2 mph 18 mph 51.9% 0 in
16:19 71.1 °F 52.5 °F 30 in ESE 9.2 mph 16.3 mph 52% 0 in
16:24 71.2 °F 52.5 °F 29.9 in ESE 9.2 mph 16.1 mph 51.8% 0 in
16:29 71.6 °F 52.5 °F 29.9 in Este 8.8 mph 17.5 mph 51% 0 in
16:34 71.2 °F 52.5 °F 29.9 in ESE 7.6 mph 18.4 mph 51.5% 0 in
16:39 71.2 °F 52.7 °F 29.9 in Este 7.9 mph 18 mph 51.9% 0 in
16:44 71.4 °F 52.5 °F 29.9 in Este 8.5 mph 16.1 mph 51.2% 0 in
16:49 71.2 °F 52.2 °F 29.9 in ESE 8.9 mph 17.5 mph 51.3% 0 in
16:54 71.1 °F 52.3 °F 29.9 in ESE 10 mph 17 mph 51.7% 0 in
16:59 71.2 °F 52.3 °F 29.9 in ESE 9.4 mph 16.1 mph 51.2% 0 in
17:04 71.2 °F 52.2 °F 29.9 in ESE 8.7 mph 16.1 mph 51% 0 in
17:09 71.1 °F 52 °F 29.9 in ESE 8.7 mph 16 mph 51.1% 0 in
17:14 71.2 °F 52.3 °F 29.9 in ESE 8.7 mph 13.8 mph 51.2% 0 in
17:19 71.2 °F 52.2 °F 29.9 in Este 8.3 mph 16.8 mph 51% 0 in
17:24 71.2 °F 52.2 °F 29.9 in Este 7.4 mph 17.3 mph 51% 0 in
17:29 71.2 °F 52 °F 29.9 in SE 7.8 mph 14 mph 50.5% 0 in
17:34 71.2 °F 51.6 °F 29.9 in SE 8.7 mph 19.7 mph 50% 0 in
17:39 71.1 °F 51.4 °F 29.9 in ESE 9 mph 20 mph 50.3% 0 in
17:44 71.1 °F 51.6 °F 29.9 in ESE 9.7 mph 17 mph 50.4% 0 in
17:49 71.1 °F 51.6 °F 29.9 in Este 9.3 mph 15 mph 50.2% 0 in
17:54 70.9 °F 51.4 °F 29.9 in Este 8.5 mph 17.5 mph 50% 0 in
17:59 70.9 °F 51.4 °F 29.9 in ESE 8.8 mph 17 mph 50% 0 in
18:04 71.2 °F 51.4 °F 29.9 in ESE 9.2 mph 16 mph 49.5% 0 in
18:09 71.2 °F 51.4 °F 29.9 in Este 8.8 mph 17 mph 49.6% 0 in
18:14 70.9 °F 51.4 °F 29.9 in ESE 8.1 mph 18.5 mph 50% 0 in
18:19 71.1 °F 51.3 °F 29.9 in ESE 8.6 mph 19 mph 49.9% 0 in
18:24 70.7 °F 51.3 °F 29.9 in ESE 10 mph 16.1 mph 50% 0 in
18:29 70.3 °F 51.1 °F 29.9 in ESE 10.2 mph 16.1 mph 50.5% 0 in
18:34 70.3 °F 51.3 °F 29.9 in ESE 10.7 mph 18.4 mph 50.8% 0 in
18:39 70.3 °F 51.3 °F 29.9 in ESE 10.5 mph 18 mph 51% 0 in
18:44 70.3 °F 51.3 °F 29.9 in SE 10 mph 15 mph 51% 0 in
18:49 70.5 °F 51.3 °F 29.9 in SE 9.6 mph 14.5 mph 50.5% 0 in
18:54 70.5 °F 51.4 °F 29.9 in ESE 8.7 mph 16.3 mph 51% 0 in
18:59 70.3 °F 51.3 °F 29.9 in ESE 9.1 mph 16 mph 51% 0 in
19:04 70.2 °F 51.3 °F 29.9 in ESE 9.7 mph 15 mph 51% 0 in
19:09 70.3 °F 51.3 °F 29.9 in SE 9.2 mph 14 mph 51% 0 in
19:14 70.2 °F 51.3 °F 29.9 in ESE 8.1 mph 16.1 mph 51.3% 0 in
19:19 70 °F 51.6 °F 29.9 in ESE 8.2 mph 16 mph 52% 0 in
19:24 70.2 °F 51.6 °F 29.9 in ESE 8.5 mph 17 mph 52% 0 in
19:29 69.8 °F 51.6 °F 29.9 in ESE 8.4 mph 17.3 mph 52.5% 0 in
19:34 69.4 °F 51.6 °F 29.9 in ESE 8.1 mph 17 mph 53% 0 in
19:39 69.3 °F 51.6 °F 29.9 in ESE 8.4 mph 15 mph 53.4% 0 in
19:44 69.1 °F 51.6 °F 29.9 in ESE 9.2 mph 14 mph 54% 0 in
19:49 68.7 °F 51.8 °F 29.9 in ESE 8.9 mph 14 mph 54.8% 0 in
19:54 68.5 °F 51.8 °F 29.9 in SE 8.1 mph 15.9 mph 55% 0 in
19:59 68.4 °F 51.6 °F 29.9 in ESE 8.5 mph 16.1 mph 55.1% 0 in
20:04 68.2 °F 51.8 °F 29.9 in ESE 9.2 mph 14 mph 55.9% 0 in
20:09 67.8 °F 51.6 °F 29.9 in ESE 8.7 mph 14 mph 56% 0 in
20:14 68 °F 51.8 °F 29.9 in ESE 7.6 mph 14 mph 56% 0 in
20:19 68 °F 52 °F 29.9 in ESE 7.5 mph 17.3 mph 56.7% 0 in
20:24 67.6 °F 52.2 °F 29.9 in ESE 7.4 mph 17.3 mph 57.5% 0 in
20:29 67.5 °F 52.2 °F 29.9 in SE 7.5 mph 12.7 mph 58% 0 in
20:34 67.3 °F 52.3 °F 29.9 in ESE 7.6 mph 13 mph 58.5% 0 in
20:39 67.1 °F 52.3 °F 29.9 in ESE 7.1 mph 10 mph 59% 0 in
20:44 66.9 °F 52.2 °F 29.9 in ESE 6.2 mph 9.2 mph 59% 0 in
20:49 66.7 °F 52.3 °F 29.9 in ESE 6.3 mph 11.8 mph 60% 0 in
20:54 66.4 °F 52.3 °F 29.9 in ESE 6.4 mph 13.7 mph 60.4% 0 in
20:59 66.4 °F 52.5 °F 29.9 in ESE 6.4 mph 14 mph 61% 0 in
21:04 66.4 °F 52.5 °F 29.9 in Este 6.4 mph 10 mph 61% 0 in
21:09 66.2 °F 52.3 °F 29.9 in NNE 5.7 mph 7.4 mph 61% 0 in
21:14 65.7 °F 52.3 °F 29.9 in NNE 4 mph 10.4 mph 61.8% 0 in
21:19 65.1 °F 52.3 °F 29.9 in NNE 4.7 mph 11.5 mph 63% 0 in
21:24 64.9 °F 52.3 °F 29.9 in NE 6.2 mph 12 mph 63.7% 0 in
21:29 64.9 °F 52.5 °F 29.9 in NNE 6 mph 10.7 mph 64% 0 in
21:34 64.4 °F 52.2 °F 29.9 in NE 5.4 mph 11.8 mph 64.5% 0 in
21:39 63.9 °F 52.2 °F 29.9 in NE 6 mph 12 mph 65.6% 0 in
21:44 63.5 °F 52.2 °F 29.9 in NNE 7.6 mph 12 mph 66.3% 0 in
21:49 63.3 °F 52.2 °F 29.9 in NNE 7.5 mph 11.8 mph 67% 0 in
21:54 63.1 °F 52 °F 29.9 in NE 7.4 mph 12 mph 67% 0 in
21:59 63 °F 52.2 °F 29.9 in NNE 6.8 mph 11.5 mph 67.5% 0 in
22:04 62.8 °F 52 °F 30 in NE 5.9 mph 12 mph 68% 0 in
22:09 62.4 °F 52.2 °F 30 in NNE 6 mph 9.7 mph 68.9% 0 in
22:14 62.2 °F 52 °F 30 in NNE 6.2 mph 10.4 mph 69.3% 0 in
22:19 62.1 °F 52.2 °F 30 in NNE 6.2 mph 10 mph 70% 0 in
22:24 62.1 °F 52.2 °F 30 in NNE 6.2 mph 9 mph 70% 0 in
22:29 61.9 °F 52 °F 30 in NNE 5.7 mph 10.4 mph 70% 0 in
22:34 61.5 °F 52 °F 30 in NNE 4.7 mph 10.4 mph 71% 0 in
22:39 61.3 °F 52 °F 30 in NE 5 mph 10.4 mph 71.5% 0 in
22:44 61.2 °F 52.2 °F 30 in NNE 5.9 mph 9 mph 72% 0 in
22:49 61 °F 52 °F 30 in NNE 5.7 mph 8 mph 72.2% 0 in
22:54 61 °F 52.3 °F 30 in NNE 5.2 mph 7 mph 73% 0 in
22:59 61 °F 52.2 °F 30 in NE 4.8 mph 8.1 mph 73% 0 in
23:04 60.8 °F 52 °F 30 in NNE 4.3 mph 8 mph 73% 0 in
23:09 60.6 °F 52 °F 30 in NNE 4.4 mph 7 mph 73.3% 0 in
23:14 60.6 °F 52.3 °F 30 in NNE 4.7 mph 7 mph 74% 0 in
23:19 60.6 °F 52.3 °F 30 in NNE 4.3 mph 6.4 mph 74% 0 in
23:24 60.6 °F 52.3 °F 30 in NNE 3.1 mph 7 mph 74% 0 in
23:29 60.6 °F 52.3 °F 30 in NE 2.9 mph 7 mph 74% 0 in
23:34 60.6 °F 52.3 °F 30 in NNE 2.4 mph 6.2 mph 74% 0 in
23:39 60.6 °F 52.3 °F 30 in NNE 2.8 mph 8.1 mph 74% 0 in
23:44 60.4 °F 52.2 °F 30 in NNE 3.6 mph 8.1 mph 74% 0 in
23:49 60.4 °F 52.2 °F 30 in NNE 3.8 mph 8 mph 74.5% 0 in
23:54 60.3 °F 52.3 °F 30 in NNE 4.3 mph 7 mph 75% 0 in
23:59 60.3 °F 52.3 °F 30 in NE 4.3 mph 7 mph 75% 0 in
Murcia-Puente Tocinos, España
Compliments of Weather Underground - 2.75 mb

La estación de MeteoMurcia.com, publica sus datos en los siguientes proyectos:

Weather Underground PWS IMURCIAP2 Meteoclimatic www.awekas.at

W3Counter
Web Analytics